sensor_id;sensor_type;location;lat;lon;timestamp;P1;durP1;ratioP1;P2;durP2;ratioP2
77451;SDS011;66537;52.370;4.832;2023-04-24T00:00:38;5.73;;;1.10;;
77451;SDS011;66537;52.370;4.832;2023-04-24T00:03:05;4.32;;;0.95;;
77451;SDS011;66537;52.370;4.832;2023-04-24T00:05:31;3.67;;;1.05;;
77451;SDS011;66537;52.370;4.832;2023-04-24T00:07:57;4.07;;;1.30;;
77451;SDS011;66537;52.370;4.832;2023-04-24T00:10:23;4.20;;;1.20;;
77451;SDS011;66537;52.370;4.832;2023-04-24T00:12:48;4.60;;;1.20;;
77451;SDS011;66537;52.370;4.832;2023-04-24T00:15:13;4.57;;;1.00;;
77451;SDS011;66537;52.370;4.832;2023-04-24T00:17:39;4.17;;;0.90;;
77451;SDS011;66537;52.370;4.832;2023-04-24T00:20:04;3.47;;;0.70;;
77451;SDS011;66537;52.370;4.832;2023-04-24T00:22:32;2.53;;;0.43;;
77451;SDS011;66537;52.370;4.832;2023-04-24T00:24:58;3.15;;;0.40;;
77451;SDS011;66537;52.370;4.832;2023-04-24T00:27:23;3.50;;;0.80;;
77451;SDS011;66537;52.370;4.832;2023-04-24T00:29:49;5.57;;;1.70;;
77451;SDS011;66537;52.370;4.832;2023-04-24T00:32:14;5.95;;;2.35;;
77451;SDS011;66537;52.370;4.832;2023-04-24T00:34:40;9.27;;;3.17;;
77451;SDS011;66537;52.370;4.832;2023-04-24T00:37:06;11.93;;;5.28;;
77451;SDS011;66537;52.370;4.832;2023-04-24T00:39:31;17.00;;;5.95;;
77451;SDS011;66537;52.370;4.832;2023-04-24T00:41:57;14.00;;;6.03;;
77451;SDS011;66537;52.370;4.832;2023-04-24T00:44:22;20.88;;;8.55;;
77451;SDS011;66537;52.370;4.832;2023-04-24T00:46:48;27.45;;;10.15;;
77451;SDS011;66537;52.370;4.832;2023-04-24T00:49:19;22.20;;;9.23;;
77451;SDS011;66537;52.370;4.832;2023-04-24T00:51:45;17.92;;;7.10;;
77451;SDS011;66537;52.370;4.832;2023-04-24T00:54:12;14.95;;;6.10;;
77451;SDS011;66537;52.370;4.832;2023-04-24T00:56:38;13.75;;;5.78;;
77451;SDS011;66537;52.370;4.832;2023-04-24T00:59:04;12.07;;;4.45;;
77451;SDS011;66537;52.370;4.832;2023-04-24T01:01:30;13.35;;;3.88;;
77451;SDS011;66537;52.370;4.832;2023-04-24T01:03:55;8.05;;;2.97;;
77451;SDS011;66537;52.370;4.832;2023-04-24T01:06:22;6.35;;;1.77;;
77451;SDS011;66537;52.370;4.832;2023-04-24T01:08:48;5.07;;;1.27;;
77451;SDS011;66537;52.370;4.832;2023-04-24T01:11:14;3.95;;;1.17;;
77451;SDS011;66537;52.370;4.832;2023-04-24T01:13:39;4.47;;;0.95;;
77451;SDS011;66537;52.370;4.832;2023-04-24T01:16:05;5.85;;;1.60;;
77451;SDS011;66537;52.370;4.832;2023-04-24T01:18:31;6.43;;;1.83;;
77451;SDS011;66537;52.370;4.832;2023-04-24T01:20:57;4.60;;;1.23;;
77451;SDS011;66537;52.370;4.832;2023-04-24T01:23:23;6.32;;;1.48;;
77451;SDS011;66537;52.370;4.832;2023-04-24T01:25:49;4.30;;;1.10;;
77451;SDS011;66537;52.370;4.832;2023-04-24T01:28:15;4.43;;;0.88;;
77451;SDS011;66537;52.370;4.832;2023-04-24T01:30:41;3.70;;;0.63;;
77451;SDS011;66537;52.370;4.832;2023-04-24T01:33:08;3.67;;;0.43;;
77451;SDS011;66537;52.370;4.832;2023-04-24T01:35:33;3.83;;;0.60;;
77451;SDS011;66537;52.370;4.832;2023-04-24T01:37:59;3.63;;;0.50;;
77451;SDS011;66537;52.370;4.832;2023-04-24T01:40:24;4.03;;;0.63;;
77451;SDS011;66537;52.370;4.832;2023-04-24T01:42:50;6.78;;;0.60;;
77451;SDS011;66537;52.370;4.832;2023-04-24T01:45:15;2.63;;;0.60;;
77451;SDS011;66537;52.370;4.832;2023-04-24T01:47:41;4.27;;;0.50;;
77451;SDS011;66537;52.370;4.832;2023-04-24T01:50:06;6.53;;;0.52;;
77451;SDS011;66537;52.370;4.832;2023-04-24T01:52:32;5.22;;;0.50;;
77451;SDS011;66537;52.370;4.832;2023-04-24T01:55:01;3.58;;;0.30;;
77451;SDS011;66537;52.370;4.832;2023-04-24T01:57:27;4.53;;;0.40;;
77451;SDS011;66537;52.370;4.832;2023-04-24T01:59:55;3.58;;;0.60;;
77451;SDS011;66537;52.370;4.832;2023-04-24T02:02:20;5.22;;;0.47;;
77451;SDS011;66537;52.370;4.832;2023-04-24T02:04:46;4.90;;;0.50;;
77451;SDS011;66537;52.370;4.832;2023-04-24T02:07:11;4.75;;;0.73;;
77451;SDS011;66537;52.370;4.832;2023-04-24T02:09:37;7.63;;;0.90;;
77451;SDS011;66537;52.370;4.832;2023-04-24T02:12:02;4.30;;;0.40;;
77451;SDS011;66537;52.370;4.832;2023-04-24T02:14:28;4.53;;;0.50;;
77451;SDS011;66537;52.370;4.832;2023-04-24T02:16:53;6.07;;;0.50;;
77451;SDS011;66537;52.370;4.832;2023-04-24T02:19:19;3.30;;;0.30;;
77451;SDS011;66537;52.370;4.832;2023-04-24T02:21:44;4.25;;;0.70;;
77451;SDS011;66537;52.370;4.832;2023-04-24T02:24:10;3.25;;;0.30;;
77451;SDS011;66537;52.370;4.832;2023-04-24T02:26:35;3.75;;;0.50;;
77451;SDS011;66537;52.370;4.832;2023-04-24T02:29:01;2.35;;;0.13;;
77451;SDS011;66537;52.370;4.832;2023-04-24T02:31:26;3.95;;;0.15;;
77451;SDS011;66537;52.370;4.832;2023-04-24T02:33:51;2.03;;;0.20;;
77451;SDS011;66537;52.370;4.832;2023-04-24T02:36:17;1.47;;;0.20;;
77451;SDS011;66537;52.370;4.832;2023-04-24T02:38:42;2.17;;;0.10;;
77451;SDS011;66537;52.370;4.832;2023-04-24T02:41:07;4.33;;;0.30;;
77451;SDS011;66537;52.370;4.832;2023-04-24T02:43:33;1.40;;;0.10;;
77451;SDS011;66537;52.370;4.832;2023-04-24T02:45:58;1.38;;;0.10;;
77451;SDS011;66537;52.370;4.832;2023-04-24T02:48:24;3.00;;;0.10;;
77451;SDS011;66537;52.370;4.832;2023-04-24T02:50:49;1.80;;;0.30;;
77451;SDS011;66537;52.370;4.832;2023-04-24T02:53:15;3.08;;;0.25;;
77451;SDS011;66537;52.370;4.832;2023-04-24T02:55:41;2.05;;;0.10;;
77451;SDS011;66537;52.370;4.832;2023-04-24T02:58:06;2.67;;;0.30;;
77451;SDS011;66537;52.370;4.832;2023-04-24T03:00:31;1.50;;;0.20;;
77451;SDS011;66537;52.370;4.832;2023-04-24T03:02:57;2.38;;;0.20;;
77451;SDS011;66537;52.370;4.832;2023-04-24T03:05:22;2.53;;;0.30;;
77451;SDS011;66537;52.370;4.832;2023-04-24T03:07:47;1.70;;;0.10;;
77451;SDS011;66537;52.370;4.832;2023-04-24T03:10:13;2.08;;;0.30;;
77451;SDS011;66537;52.370;4.832;2023-04-24T03:12:38;1.77;;;0.20;;
77451;SDS011;66537;52.370;4.832;2023-04-24T03:15:03;3.27;;;0.40;;
77451;SDS011;66537;52.370;4.832;2023-04-24T03:17:29;2.90;;;0.20;;
77451;SDS011;66537;52.370;4.832;2023-04-24T03:19:55;2.53;;;0.35;;
77451;SDS011;66537;52.370;4.832;2023-04-24T03:22:20;1.70;;;0.20;;
77451;SDS011;66537;52.370;4.832;2023-04-24T03:24:46;1.37;;;0.20;;
77451;SDS011;66537;52.370;4.832;2023-04-24T03:27:11;3.80;;;0.63;;
77451;SDS011;66537;52.370;4.832;2023-04-24T03:29:36;4.03;;;0.30;;
77451;SDS011;66537;52.370;4.832;2023-04-24T03:32:02;2.27;;;0.30;;
77451;SDS011;66537;52.370;4.832;2023-04-24T03:34:27;2.60;;;0.35;;
77451;SDS011;66537;52.370;4.832;2023-04-24T03:36:53;2.15;;;0.20;;
77451;SDS011;66537;52.370;4.832;2023-04-24T03:39:18;5.32;;;0.20;;
77451;SDS011;66537;52.370;4.832;2023-04-24T03:41:43;3.40;;;0.40;;
77451;SDS011;66537;52.370;4.832;2023-04-24T03:44:09;2.78;;;0.32;;
77451;SDS011;66537;52.370;4.832;2023-04-24T03:46:34;3.05;;;0.20;;
77451;SDS011;66537;52.370;4.832;2023-04-24T03:49:00;2.35;;;0.17;;
77451;SDS011;66537;52.370;4.832;2023-04-24T03:51:25;1.58;;;0.10;;
77451;SDS011;66537;52.370;4.832;2023-04-24T03:53:52;2.67;;;0.30;;
77451;SDS011;66537;52.370;4.832;2023-04-24T03:56:18;4.33;;;0.30;;
77451;SDS011;66537;52.370;4.832;2023-04-24T03:58:43;3.03;;;0.20;;
77451;SDS011;66537;52.370;4.832;2023-04-24T04:01:08;2.33;;;0.30;;
77451;SDS011;66537;52.370;4.832;2023-04-24T04:03:33;2.10;;;0.17;;
77451;SDS011;66537;52.370;4.832;2023-04-24T04:05:59;2.33;;;0.10;;
77451;SDS011;66537;52.370;4.832;2023-04-24T04:08:24;3.00;;;0.20;;
77451;SDS011;66537;52.370;4.832;2023-04-24T04:10:49;4.03;;;0.30;;
77451;SDS011;66537;52.370;4.832;2023-04-24T04:13:15;1.33;;;0.20;;
77451;SDS011;66537;52.370;4.832;2023-04-24T04:15:40;2.10;;;0.10;;
77451;SDS011;66537;52.370;4.832;2023-04-24T04:18:05;2.30;;;0.22;;
77451;SDS011;66537;52.370;4.832;2023-04-24T04:20:31;1.02;;;0.10;;
77451;SDS011;66537;52.370;4.832;2023-04-24T04:22:56;2.70;;;0.32;;
77451;SDS011;66537;52.370;4.832;2023-04-24T04:25:22;2.63;;;0.33;;
77451;SDS011;66537;52.370;4.832;2023-04-24T04:27:48;3.65;;;0.30;;
77451;SDS011;66537;52.370;4.832;2023-04-24T04:30:13;3.10;;;0.25;;
77451;SDS011;66537;52.370;4.832;2023-04-24T04:32:39;2.55;;;0.28;;
77451;SDS011;66537;52.370;4.832;2023-04-24T04:35:04;2.30;;;0.20;;
77451;SDS011;66537;52.370;4.832;2023-04-24T04:37:31;1.75;;;0.20;;
77451;SDS011;66537;52.370;4.832;2023-04-24T04:39:59;3.38;;;0.20;;
77451;SDS011;66537;52.370;4.832;2023-04-24T04:42:25;2.83;;;0.30;;
77451;SDS011;66537;52.370;4.832;2023-04-24T04:44:51;1.92;;;0.25;;
77451;SDS011;66537;52.370;4.832;2023-04-24T04:47:17;6.90;;;0.40;;
77451;SDS011;66537;52.370;4.832;2023-04-24T04:49:43;1.83;;;0.30;;
77451;SDS011;66537;52.370;4.832;2023-04-24T04:52:09;4.35;;;0.20;;
77451;SDS011;66537;52.370;4.832;2023-04-24T04:54:34;2.22;;;0.30;;
77451;SDS011;66537;52.370;4.832;2023-04-24T04:57:00;2.47;;;0.30;;
77451;SDS011;66537;52.370;4.832;2023-04-24T04:59:26;1.92;;;0.28;;
77451;SDS011;66537;52.370;4.832;2023-04-24T05:01:51;3.85;;;0.50;;
77451;SDS011;66537;52.370;4.832;2023-04-24T05:04:16;3.27;;;0.60;;
77451;SDS011;66537;52.370;4.832;2023-04-24T05:06:42;5.17;;;1.47;;
77451;SDS011;66537;52.370;4.832;2023-04-24T05:09:07;6.55;;;2.15;;
77451;SDS011;66537;52.370;4.832;2023-04-24T05:11:33;10.00;;;2.40;;
77451;SDS011;66537;52.370;4.832;2023-04-24T05:13:58;9.60;;;3.30;;
77451;SDS011;66537;52.370;4.832;2023-04-24T05:16:23;13.07;;;4.95;;
77451;SDS011;66537;52.370;4.832;2023-04-24T05:18:49;14.17;;;5.77;;
77451;SDS011;66537;52.370;4.832;2023-04-24T05:21:14;16.70;;;5.63;;
77451;SDS011;66537;52.370;4.832;2023-04-24T05:23:40;16.50;;;6.97;;
77451;SDS011;66537;52.370;4.832;2023-04-24T05:26:05;19.63;;;6.87;;
77451;SDS011;66537;52.370;4.832;2023-04-24T05:28:30;23.23;;;9.18;;
77451;SDS011;66537;52.370;4.832;2023-04-24T05:30:56;26.55;;;11.80;;
77451;SDS011;66537;52.370;4.832;2023-04-24T05:33:21;28.33;;;12.20;;
77451;SDS011;66537;52.370;4.832;2023-04-24T05:35:47;39.13;;;15.57;;
77451;SDS011;66537;52.370;4.832;2023-04-24T05:38:13;36.92;;;15.68;;
77451;SDS011;66537;52.370;4.832;2023-04-24T05:40:39;41.47;;;16.67;;
77451;SDS011;66537;52.370;4.832;2023-04-24T05:43:05;43.30;;;16.35;;
77451;SDS011;66537;52.370;4.832;2023-04-24T05:45:30;45.72;;;16.60;;
77451;SDS011;66537;52.370;4.832;2023-04-24T05:47:56;47.38;;;17.67;;
77451;SDS011;66537;52.370;4.832;2023-04-24T05:50:21;42.37;;;16.90;;
77451;SDS011;66537;52.370;4.832;2023-04-24T05:52:47;44.73;;;16.67;;
77451;SDS011;66537;52.370;4.832;2023-04-24T05:55:12;42.70;;;15.00;;
77451;SDS011;66537;52.370;4.832;2023-04-24T05:57:38;43.78;;;14.82;;
77451;SDS011;66537;52.370;4.832;2023-04-24T06:00:04;46.25;;;15.68;;
77451;SDS011;66537;52.370;4.832;2023-04-24T06:02:30;46.13;;;14.48;;
77451;SDS011;66537;52.370;4.832;2023-04-24T06:04:58;40.22;;;13.70;;
77451;SDS011;66537;52.370;4.832;2023-04-24T06:07:24;37.17;;;13.10;;
77451;SDS011;66537;52.370;4.832;2023-04-24T06:09:51;41.83;;;12.25;;
77451;SDS011;66537;52.370;4.832;2023-04-24T06:12:17;29.42;;;10.23;;
77451;SDS011;66537;52.370;4.832;2023-04-24T06:14:42;28.02;;;10.63;;
77451;SDS011;66537;52.370;4.832;2023-04-24T06:17:08;31.75;;;10.07;;
77451;SDS011;66537;52.370;4.832;2023-04-24T06:19:33;29.23;;;10.13;;
77451;SDS011;66537;52.370;4.832;2023-04-24T06:21:59;31.87;;;12.43;;
77451;SDS011;66537;52.370;4.832;2023-04-24T06:24:27;30.20;;;11.27;;
77451;SDS011;66537;52.370;4.832;2023-04-24T06:26:52;37.17;;;11.60;;
77451;SDS011;66537;52.370;4.832;2023-04-24T06:29:18;34.53;;;11.70;;
77451;SDS011;66537;52.370;4.832;2023-04-24T06:31:43;29.77;;;10.80;;
77451;SDS011;66537;52.370;4.832;2023-04-24T06:34:08;21.90;;;10.17;;
77451;SDS011;66537;52.370;4.832;2023-04-24T06:36:33;27.77;;;9.20;;
77451;SDS011;66537;52.370;4.832;2023-04-24T06:39:00;29.67;;;10.65;;
77451;SDS011;66537;52.370;4.832;2023-04-24T06:41:26;30.70;;;9.80;;
77451;SDS011;66537;52.370;4.832;2023-04-24T06:43:51;32.67;;;10.45;;
77451;SDS011;66537;52.370;4.832;2023-04-24T06:46:17;34.63;;;9.90;;
77451;SDS011;66537;52.370;4.832;2023-04-24T06:48:42;32.22;;;10.32;;
77451;SDS011;66537;52.370;4.832;2023-04-24T06:51:07;36.90;;;8.68;;
77451;SDS011;66537;52.370;4.832;2023-04-24T06:53:33;27.20;;;8.35;;
77451;SDS011;66537;52.370;4.832;2023-04-24T06:55:58;32.72;;;7.93;;
77451;SDS011;66537;52.370;4.832;2023-04-24T06:58:24;24.00;;;9.38;;
77451;SDS011;66537;52.370;4.832;2023-04-24T07:00:50;34.05;;;8.45;;
77451;SDS011;66537;52.370;4.832;2023-04-24T07:03:15;29.73;;;7.93;;
77451;SDS011;66537;52.370;4.832;2023-04-24T07:05:41;37.40;;;8.32;;
77451;SDS011;66537;52.370;4.832;2023-04-24T07:08:06;31.02;;;6.72;;
77451;SDS011;66537;52.370;4.832;2023-04-24T07:10:32;22.60;;;5.82;;
77451;SDS011;66537;52.370;4.832;2023-04-24T07:12:59;20.98;;;5.95;;
77451;SDS011;66537;52.370;4.832;2023-04-24T07:15:24;24.25;;;6.22;;
77451;SDS011;66537;52.370;4.832;2023-04-24T07:17:50;31.48;;;6.95;;
77451;SDS011;66537;52.370;4.832;2023-04-24T07:20:15;21.45;;;5.07;;
77451;SDS011;66537;52.370;4.832;2023-04-24T07:22:40;23.45;;;5.95;;
77451;SDS011;66537;52.370;4.832;2023-04-24T07:25:06;29.75;;;6.45;;
77451;SDS011;66537;52.370;4.832;2023-04-24T07:27:32;22.98;;;6.00;;
77451;SDS011;66537;52.370;4.832;2023-04-24T07:29:59;25.67;;;4.50;;
77451;SDS011;66537;52.370;4.832;2023-04-24T07:32:24;28.35;;;5.03;;
77451;SDS011;66537;52.370;4.832;2023-04-24T07:34:50;29.63;;;4.55;;
77451;SDS011;66537;52.370;4.832;2023-04-24T07:37:15;19.80;;;3.97;;
77451;SDS011;66537;52.370;4.832;2023-04-24T07:39:40;15.90;;;2.87;;
77451;SDS011;66537;52.370;4.832;2023-04-24T07:42:06;26.50;;;4.13;;
77451;SDS011;66537;52.370;4.832;2023-04-24T07:44:31;22.17;;;4.00;;
77451;SDS011;66537;52.370;4.832;2023-04-24T07:46:57;20.92;;;3.75;;
77451;SDS011;66537;52.370;4.832;2023-04-24T07:49:22;26.20;;;4.85;;
77451;SDS011;66537;52.370;4.832;2023-04-24T07:51:48;28.00;;;3.97;;
77451;SDS011;66537;52.370;4.832;2023-04-24T07:54:14;24.80;;;3.95;;
77451;SDS011;66537;52.370;4.832;2023-04-24T07:56:40;22.73;;;3.92;;
77451;SDS011;66537;52.370;4.832;2023-04-24T07:59:07;27.58;;;4.00;;
77451;SDS011;66537;52.370;4.832;2023-04-24T08:01:35;20.83;;;3.53;;
77451;SDS011;66537;52.370;4.832;2023-04-24T08:04:00;17.98;;;3.42;;
77451;SDS011;66537;52.370;4.832;2023-04-24T08:06:26;15.50;;;2.35;;
77451;SDS011;66537;52.370;4.832;2023-04-24T08:08:55;10.68;;;2.05;;
77451;SDS011;66537;52.370;4.832;2023-04-24T08:11:23;15.10;;;1.88;;
77451;SDS011;66537;52.370;4.832;2023-04-24T08:13:49;23.00;;;2.63;;
77451;SDS011;66537;52.370;4.832;2023-04-24T08:16:14;15.23;;;1.95;;
77451;SDS011;66537;52.370;4.832;2023-04-24T08:18:40;19.10;;;1.98;;
77451;SDS011;66537;52.370;4.832;2023-04-24T08:21:06;16.85;;;2.35;;
77451;SDS011;66537;52.370;4.832;2023-04-24T08:23:31;12.05;;;1.92;;
77451;SDS011;66537;52.370;4.832;2023-04-24T08:25:56;12.10;;;2.90;;
77451;SDS011;66537;52.370;4.832;2023-04-24T08:28:22;17.40;;;2.00;;
77451;SDS011;66537;52.370;4.832;2023-04-24T08:30:48;15.52;;;2.10;;
77451;SDS011;66537;52.370;4.832;2023-04-24T08:33:17;16.45;;;2.83;;
77451;SDS011;66537;52.370;4.832;2023-04-24T08:35:43;14.77;;;2.22;;
77451;SDS011;66537;52.370;4.832;2023-04-24T08:38:08;19.52;;;2.25;;
77451;SDS011;66537;52.370;4.832;2023-04-24T08:40:34;20.67;;;2.77;;
77451;SDS011;66537;52.370;4.832;2023-04-24T08:43:00;17.08;;;1.60;;
77451;SDS011;66537;52.370;4.832;2023-04-24T08:45:25;16.35;;;1.77;;
77451;SDS011;66537;52.370;4.832;2023-04-24T08:47:51;15.95;;;2.20;;
77451;SDS011;66537;52.370;4.832;2023-04-24T08:50:19;19.17;;;2.65;;
77451;SDS011;66537;52.370;4.832;2023-04-24T08:52:45;15.02;;;3.00;;
77451;SDS011;66537;52.370;4.832;2023-04-24T08:55:12;11.93;;;1.88;;
77451;SDS011;66537;52.370;4.832;2023-04-24T08:57:37;13.00;;;2.15;;
77451;SDS011;66537;52.370;4.832;2023-04-24T09:00:05;12.60;;;1.48;;
77451;SDS011;66537;52.370;4.832;2023-04-24T09:02:31;21.05;;;1.95;;
77451;SDS011;66537;52.370;4.832;2023-04-24T09:04:59;12.57;;;1.55;;
77451;SDS011;66537;52.370;4.832;2023-04-24T09:07:25;16.60;;;1.77;;
77451;SDS011;66537;52.370;4.832;2023-04-24T09:09:52;17.58;;;2.20;;
77451;SDS011;66537;52.370;4.832;2023-04-24T09:12:18;14.68;;;1.70;;
77451;SDS011;66537;52.370;4.832;2023-04-24T09:14:44;13.18;;;1.73;;
77451;SDS011;66537;52.370;4.832;2023-04-24T09:17:13;16.83;;;2.75;;
77451;SDS011;66537;52.370;4.832;2023-04-24T09:19:39;17.17;;;1.90;;
77451;SDS011;66537;52.370;4.832;2023-04-24T09:22:05;13.40;;;1.80;;
77451;SDS011;66537;52.370;4.832;2023-04-24T09:24:32;14.57;;;2.72;;
77451;SDS011;66537;52.370;4.832;2023-04-24T09:26:57;12.48;;;1.63;;
77451;SDS011;66537;52.370;4.832;2023-04-24T09:29:24;24.30;;;1.95;;
77451;SDS011;66537;52.370;4.832;2023-04-24T09:31:49;8.15;;;0.93;;
77451;SDS011;66537;52.370;4.832;2023-04-24T09:34:18;10.02;;;1.08;;
77451;SDS011;66537;52.370;4.832;2023-04-24T09:36:46;12.02;;;0.77;;
77451;SDS011;66537;52.370;4.832;2023-04-24T09:39:13;9.63;;;1.08;;
77451;SDS011;66537;52.370;4.832;2023-04-24T09:44:17;8.88;;;1.02;;
77451;SDS011;66537;52.370;4.832;2023-04-24T09:46:49;7.97;;;1.23;;
77451;SDS011;66537;52.370;4.832;2023-04-24T09:49:16;10.68;;;1.05;;
77451;SDS011;66537;52.370;4.832;2023-04-24T09:51:46;14.13;;;1.30;;
77451;SDS011;66537;52.370;4.832;2023-04-24T09:54:15;9.17;;;1.17;;
77451;SDS011;66537;52.370;4.832;2023-04-24T09:56:46;10.25;;;1.33;;
77451;SDS011;66537;52.370;4.832;2023-04-24T09:59:13;9.90;;;0.88;;
77451;SDS011;66537;52.370;4.832;2023-04-24T10:01:40;7.82;;;0.60;;
77451;SDS011;66537;52.370;4.832;2023-04-24T10:04:16;13.52;;;0.80;;
77451;SDS011;66537;52.370;4.832;2023-04-24T10:06:45;8.40;;;0.60;;
77451;SDS011;66537;52.370;4.832;2023-04-24T10:09:13;8.13;;;0.88;;
77451;SDS011;66537;52.370;4.832;2023-04-24T10:11:44;2.83;;;0.35;;
77451;SDS011;66537;52.370;4.832;2023-04-24T10:14:12;5.13;;;0.98;;
77451;SDS011;66537;52.370;4.832;2023-04-24T10:16:39;3.65;;;0.73;;
77451;SDS011;66537;52.370;4.832;2023-04-24T10:19:06;6.18;;;0.50;;
77451;SDS011;66537;52.370;4.832;2023-04-24T10:21:32;5.07;;;0.43;;
77451;SDS011;66537;52.370;4.832;2023-04-24T10:23:58;10.95;;;0.75;;
77451;SDS011;66537;52.370;4.832;2023-04-24T10:26:24;5.35;;;1.42;;
77451;SDS011;66537;52.370;4.832;2023-04-24T10:28:51;8.07;;;0.65;;
77451;SDS011;66537;52.370;4.832;2023-04-24T10:31:18;10.25;;;0.90;;
77451;SDS011;66537;52.370;4.832;2023-04-24T10:33:44;4.82;;;0.57;;
77451;SDS011;66537;52.370;4.832;2023-04-24T10:36:11;8.75;;;0.60;;
77451;SDS011;66537;52.370;4.832;2023-04-24T10:38:39;10.07;;;0.90;;
77451;SDS011;66537;52.370;4.832;2023-04-24T10:41:09;7.63;;;0.40;;
77451;SDS011;66537;52.370;4.832;2023-04-24T10:43:40;6.32;;;0.60;;
77451;SDS011;66537;52.370;4.832;2023-04-24T10:46:08;7.82;;;0.50;;
77451;SDS011;66537;52.370;4.832;2023-04-24T10:48:35;5.22;;;0.55;;
77451;SDS011;66537;52.370;4.832;2023-04-24T10:51:00;5.85;;;0.60;;
77451;SDS011;66537;52.370;4.832;2023-04-24T10:53:30;7.50;;;0.50;;
77451;SDS011;66537;52.370;4.832;2023-04-24T10:56:02;9.07;;;0.63;;
77451;SDS011;66537;52.370;4.832;2023-04-24T11:01:02;11.35;;;0.50;;
77451;SDS011;66537;52.370;4.832;2023-04-24T11:03:31;6.65;;;0.40;;
77451;SDS011;66537;52.370;4.832;2023-04-24T11:05:59;6.45;;;0.50;;
77451;SDS011;66537;52.370;4.832;2023-04-24T11:08:40;11.50;;;0.80;;
77451;SDS011;66537;52.370;4.832;2023-04-24T11:11:09;10.20;;;1.30;;
77451;SDS011;66537;52.370;4.832;2023-04-24T11:21:42;8.07;;;0.90;;
77451;SDS011;66537;52.370;4.832;2023-04-24T11:24:29;6.18;;;0.75;;
77451;SDS011;66537;52.370;4.832;2023-04-24T11:32:17;7.30;;;0.75;;
77451;SDS011;66537;52.370;4.832;2023-04-24T11:34:49;9.48;;;0.70;;
77451;SDS011;66537;52.370;4.832;2023-04-24T11:37:16;8.68;;;1.10;;
77451;SDS011;66537;52.370;4.832;2023-04-24T11:39:42;9.23;;;1.08;;
77451;SDS011;66537;52.370;4.832;2023-04-24T11:42:08;9.15;;;0.85;;
77451;SDS011;66537;52.370;4.832;2023-04-24T11:44:34;11.38;;;1.05;;
77451;SDS011;66537;52.370;4.832;2023-04-24T11:47:03;15.63;;;1.33;;
77451;SDS011;66537;52.370;4.832;2023-04-24T11:49:29;13.23;;;1.42;;
77451;SDS011;66537;52.370;4.832;2023-04-24T11:51:55;13.00;;;1.97;;
77451;SDS011;66537;52.370;4.832;2023-04-24T11:54:21;11.98;;;1.40;;
77451;SDS011;66537;52.370;4.832;2023-04-24T11:56:47;15.80;;;1.83;;
77451;SDS011;66537;52.370;4.832;2023-04-24T11:59:13;15.43;;;2.47;;
77451;SDS011;66537;52.370;4.832;2023-04-24T12:01:47;17.60;;;2.42;;
77451;SDS011;66537;52.370;4.832;2023-04-24T12:04:14;21.83;;;2.20;;
77451;SDS011;66537;52.370;4.832;2023-04-24T12:06:58;18.42;;;1.95;;
77451;SDS011;66537;52.370;4.832;2023-04-24T12:09:25;18.60;;;2.20;;
77451;SDS011;66537;52.370;4.832;2023-04-24T12:11:53;14.13;;;2.10;;
77451;SDS011;66537;52.370;4.832;2023-04-24T12:14:22;17.35;;;2.45;;
77451;SDS011;66537;52.370;4.832;2023-04-24T12:16:48;14.65;;;2.35;;
77451;SDS011;66537;52.370;4.832;2023-04-24T12:19:18;12.82;;;1.95;;
77451;SDS011;66537;52.370;4.832;2023-04-24T12:22:04;16.60;;;2.33;;
77451;SDS011;66537;52.370;4.832;2023-04-24T12:24:31;19.58;;;1.85;;
77451;SDS011;66537;52.370;4.832;2023-04-24T12:26:57;16.67;;;2.47;;
77451;SDS011;66537;52.370;4.832;2023-04-24T12:29:26;17.60;;;2.95;;
77451;SDS011;66537;52.370;4.832;2023-04-24T12:31:51;15.00;;;1.73;;
77451;SDS011;66537;52.370;4.832;2023-04-24T12:34:18;18.42;;;2.47;;
77451;SDS011;66537;52.370;4.832;2023-04-24T12:39:19;19.17;;;2.20;;
77451;SDS011;66537;52.370;4.832;2023-04-24T12:41:57;14.35;;;2.33;;
77451;SDS011;66537;52.370;4.832;2023-04-24T12:44:33;21.42;;;2.47;;
77451;SDS011;66537;52.370;4.832;2023-04-24T12:46:59;17.27;;;3.00;;
77451;SDS011;66537;52.370;4.832;2023-04-24T12:49:29;23.38;;;2.55;;
77451;SDS011;66537;52.370;4.832;2023-04-24T12:51:55;17.65;;;2.75;;
77451;SDS011;66537;52.370;4.832;2023-04-24T12:54:20;17.67;;;2.25;;
77451;SDS011;66537;52.370;4.832;2023-04-24T12:56:46;15.10;;;1.90;;
77451;SDS011;66537;52.370;4.832;2023-04-24T12:59:11;17.67;;;2.93;;
77451;SDS011;66537;52.370;4.832;2023-04-24T13:01:36;21.55;;;2.63;;
77451;SDS011;66537;52.370;4.832;2023-04-24T13:04:02;19.03;;;2.70;;
77451;SDS011;66537;52.370;4.832;2023-04-24T13:06:27;19.17;;;3.00;;
77451;SDS011;66537;52.370;4.832;2023-04-24T13:08:53;19.92;;;3.40;;
77451;SDS011;66537;52.370;4.832;2023-04-24T13:11:19;13.93;;;2.50;;
77451;SDS011;66537;52.370;4.832;2023-04-24T13:13:46;24.50;;;2.47;;
77451;SDS011;66537;52.370;4.832;2023-04-24T13:16:11;12.38;;;1.83;;
77451;SDS011;66537;52.370;4.832;2023-04-24T13:18:37;14.53;;;2.43;;
77451;SDS011;66537;52.370;4.832;2023-04-24T13:21:02;12.83;;;2.20;;
77451;SDS011;66537;52.370;4.832;2023-04-24T13:23:28;12.45;;;1.80;;
77451;SDS011;66537;52.370;4.832;2023-04-24T13:25:54;11.35;;;2.00;;
77451;SDS011;66537;52.370;4.832;2023-04-24T13:28:22;11.40;;;2.47;;
77451;SDS011;66537;52.370;4.832;2023-04-24T13:30:48;20.83;;;3.55;;
77451;SDS011;66537;52.370;4.832;2023-04-24T13:33:13;20.38;;;2.58;;
77451;SDS011;66537;52.370;4.832;2023-04-24T13:35:39;19.27;;;2.78;;
77451;SDS011;66537;52.370;4.832;2023-04-24T13:38:04;15.95;;;2.47;;
77451;SDS011;66537;52.370;4.832;2023-04-24T13:40:31;14.77;;;2.33;;
77451;SDS011;66537;52.370;4.832;2023-04-24T13:42:57;20.08;;;2.85;;
77451;SDS011;66537;52.370;4.832;2023-04-24T13:45:22;16.42;;;1.98;;
77451;SDS011;66537;52.370;4.832;2023-04-24T13:47:47;10.70;;;1.97;;
77451;SDS011;66537;52.370;4.832;2023-04-24T13:50:13;13.50;;;1.50;;
77451;SDS011;66537;52.370;4.832;2023-04-24T13:52:38;7.93;;;1.40;;
77451;SDS011;66537;52.370;4.832;2023-04-24T13:55:03;11.53;;;1.60;;
77451;SDS011;66537;52.370;4.832;2023-04-24T13:57:29;12.48;;;1.65;;
77451;SDS011;66537;52.370;4.832;2023-04-24T13:59:56;15.48;;;2.17;;
77451;SDS011;66537;52.370;4.832;2023-04-24T14:02:26;11.45;;;2.13;;
77451;SDS011;66537;52.370;4.832;2023-04-24T14:04:51;15.00;;;2.30;;
77451;SDS011;66537;52.370;4.832;2023-04-24T14:07:17;17.67;;;2.47;;
77451;SDS011;66537;52.370;4.832;2023-04-24T14:09:42;15.70;;;2.50;;
77451;SDS011;66537;52.370;4.832;2023-04-24T14:12:07;16.60;;;2.28;;
77451;SDS011;66537;52.370;4.832;2023-04-24T14:14:33;14.82;;;2.95;;
77451;SDS011;66537;52.370;4.832;2023-04-24T14:16:58;23.08;;;2.88;;
77451;SDS011;66537;52.370;4.832;2023-04-24T14:19:23;16.75;;;2.97;;
77451;SDS011;66537;52.370;4.832;2023-04-24T14:21:49;20.85;;;3.30;;
77451;SDS011;66537;52.370;4.832;2023-04-24T14:24:14;22.70;;;2.72;;
77451;SDS011;66537;52.370;4.832;2023-04-24T14:26:40;13.98;;;2.63;;
77451;SDS011;66537;52.370;4.832;2023-04-24T14:29:06;22.95;;;3.80;;
77451;SDS011;66537;52.370;4.832;2023-04-24T14:31:31;21.07;;;3.27;;
77451;SDS011;66537;52.370;4.832;2023-04-24T14:33:56;20.27;;;3.10;;
77451;SDS011;66537;52.370;4.832;2023-04-24T14:36:22;23.10;;;3.78;;
77451;SDS011;66537;52.370;4.832;2023-04-24T14:38:48;20.63;;;3.88;;
77451;SDS011;66537;52.370;4.832;2023-04-24T14:41:14;19.33;;;3.28;;
77451;SDS011;66537;52.370;4.832;2023-04-24T14:43:39;19.35;;;2.85;;
77451;SDS011;66537;52.370;4.832;2023-04-24T14:46:05;19.48;;;3.05;;
77451;SDS011;66537;52.370;4.832;2023-04-24T14:48:30;26.67;;;3.97;;
77451;SDS011;66537;52.370;4.832;2023-04-24T14:50:56;20.55;;;3.55;;
77451;SDS011;66537;52.370;4.832;2023-04-24T14:53:21;20.52;;;4.80;;